sensor_id;sensor_type;location;lat;lon;timestamp;temperature;humidity
44607;DHT22;30315;46.072;14.474;2022-12-08T00:01:20;8.40;77.30
44607;DHT22;30315;46.072;14.474;2022-12-08T00:03:48;8.60;77.70
44607;DHT22;30315;46.072;14.474;2022-12-08T00:06:34;8.40;77.80
44607;DHT22;30315;46.072;14.474;2022-12-08T00:09:37;8.40;77.80
44607;DHT22;30315;46.072;14.474;2022-12-08T00:12:12;8.40;77.80
44607;DHT22;30315;46.072;14.474;2022-12-08T00:14:44;8.30;77.90
44607;DHT22;30315;46.072;14.474;2022-12-08T00:17:13;8.40;78.30
44607;DHT22;30315;46.072;14.474;2022-12-08T00:19:41;8.40;78.30
44607;DHT22;30315;46.072;14.474;2022-12-08T00:22:09;8.40;78.40
44607;DHT22;30315;46.072;14.474;2022-12-08T00:24:38;8.40;78.60
44607;DHT22;30315;46.072;14.474;2022-12-08T00:27:10;8.30;78.50
44607;DHT22;30315;46.072;14.474;2022-12-08T00:29:38;8.30;78.40
44607;DHT22;30315;46.072;14.474;2022-12-08T00:32:05;8.70;78.90
44607;DHT22;30315;46.072;14.474;2022-12-08T00:34:33;8.40;78.70
44607;DHT22;30315;46.072;14.474;2022-12-08T00:37:00;8.30;78.70
44607;DHT22;30315;46.072;14.474;2022-12-08T00:39:26;8.30;79.60
44607;DHT22;30315;46.072;14.474;2022-12-08T00:41:53;8.30;79.30
44607;DHT22;30315;46.072;14.474;2022-12-08T00:44:43;8.30;79.50
44607;DHT22;30315;46.072;14.474;2022-12-08T00:47:11;8.30;79.50
44607;DHT22;30315;46.072;14.474;2022-12-08T00:49:39;8.40;79.70
44607;DHT22;30315;46.072;14.474;2022-12-08T00:52:07;8.30;79.70
44607;DHT22;30315;46.072;14.474;2022-12-08T00:54:34;8.30;79.80
44607;DHT22;30315;46.072;14.474;2022-12-08T00:57:01;8.70;80.20
44607;DHT22;30315;46.072;14.474;2022-12-08T00:59:27;8.20;79.90
44607;DHT22;30315;46.072;14.474;2022-12-08T01:01:55;8.20;79.70
44607;DHT22;30315;46.072;14.474;2022-12-08T01:04:23;8.30;79.70
44607;DHT22;30315;46.072;14.474;2022-12-08T01:06:49;8.20;79.80
44607;DHT22;30315;46.072;14.474;2022-12-08T01:09:18;8.20;80.00
44607;DHT22;30315;46.072;14.474;2022-12-08T01:11:45;8.30;80.20
44607;DHT22;30315;46.072;14.474;2022-12-08T01:14:12;8.20;80.20
44607;DHT22;30315;46.072;14.474;2022-12-08T01:16:39;8.20;80.20
44607;DHT22;30315;46.072;14.474;2022-12-08T01:19:10;8.10;80.10
44607;DHT22;30315;46.072;14.474;2022-12-08T01:21:38;8.20;80.00
44607;DHT22;30315;46.072;14.474;2022-12-08T01:24:08;8.20;79.80
44607;DHT22;30315;46.072;14.474;2022-12-08T01:26:36;8.20;79.80
44607;DHT22;30315;46.072;14.474;2022-12-08T01:29:03;8.40;79.80
44607;DHT22;30315;46.072;14.474;2022-12-08T01:31:30;8.20;79.50
44607;DHT22;30315;46.072;14.474;2022-12-08T01:33:57;8.20;79.40
44607;DHT22;30315;46.072;14.474;2022-12-08T01:36:29;8.20;79.40
44607;DHT22;30315;46.072;14.474;2022-12-08T01:38:58;8.20;79.40
44607;DHT22;30315;46.072;14.474;2022-12-08T01:41:29;8.10;79.10
44607;DHT22;30315;46.072;14.474;2022-12-08T01:44:01;8.10;79.20
44607;DHT22;30315;46.072;14.474;2022-12-08T01:46:31;8.30;79.40
44607;DHT22;30315;46.072;14.474;2022-12-08T01:49:06;8.10;79.10
44607;DHT22;30315;46.072;14.474;2022-12-08T01:51:40;8.10;79.00
44607;DHT22;30315;46.072;14.474;2022-12-08T01:54:08;8.10;79.20
44607;DHT22;30315;46.072;14.474;2022-12-08T01:56:51;8.00;79.10
44607;DHT22;30315;46.072;14.474;2022-12-08T01:59:23;8.10;79.10
44607;DHT22;30315;46.072;14.474;2022-12-08T02:01:51;8.00;79.10
44607;DHT22;30315;46.072;14.474;2022-12-08T02:04:18;8.00;79.00
44607;DHT22;30315;46.072;14.474;2022-12-08T02:06:46;8.00;78.80
44607;DHT22;30315;46.072;14.474;2022-12-08T02:09:15;8.10;79.00
44607;DHT22;30315;46.072;14.474;2022-12-08T02:11:42;8.00;79.00
44607;DHT22;30315;46.072;14.474;2022-12-08T02:17:25;8.00;79.30
44607;DHT22;30315;46.072;14.474;2022-12-08T02:22:57;8.00;79.50
44607;DHT22;30315;46.072;14.474;2022-12-08T02:35:09;8.00;80.00
44607;DHT22;30315;46.072;14.474;2022-12-08T02:37:25;8.00;79.80
44607;DHT22;30315;46.072;14.474;2022-12-08T02:43:08;7.90;80.30
44607;DHT22;30315;46.072;14.474;2022-12-08T02:45:47;7.90;80.40
44607;DHT22;30315;46.072;14.474;2022-12-08T02:48:17;7.90;80.50
44607;DHT22;30315;46.072;14.474;2022-12-08T02:50:44;7.90;80.40
44607;DHT22;30315;46.072;14.474;2022-12-08T02:53:10;7.90;80.70
44607;DHT22;30315;46.072;14.474;2022-12-08T02:56:00;7.90;80.90
44607;DHT22;30315;46.072;14.474;2022-12-08T03:01:44;7.90;81.10
44607;DHT22;30315;46.072;14.474;2022-12-08T03:07:01;7.80;81.40
44607;DHT22;30315;46.072;14.474;2022-12-08T03:12:30;7.80;82.10
44607;DHT22;30315;46.072;14.474;2022-12-08T03:15:07;7.80;82.50
44607;DHT22;30315;46.072;14.474;2022-12-08T03:17:36;7.80;82.50
44607;DHT22;30315;46.072;14.474;2022-12-08T03:20:08;7.80;82.30
44607;DHT22;30315;46.072;14.474;2022-12-08T03:22:37;7.80;82.50
44607;DHT22;30315;46.072;14.474;2022-12-08T03:25:05;7.70;82.70
44607;DHT22;30315;46.072;14.474;2022-12-08T03:27:33;7.80;82.90
44607;DHT22;30315;46.072;14.474;2022-12-08T03:30:01;7.80;83.00
44607;DHT22;30315;46.072;14.474;2022-12-08T03:35:09;7.80;83.10
44607;DHT22;30315;46.072;14.474;2022-12-08T03:37:38;7.70;82.70
44607;DHT22;30315;46.072;14.474;2022-12-08T03:40:08;7.70;82.60
44607;DHT22;30315;46.072;14.474;2022-12-08T03:42:35;7.70;82.70
44607;DHT22;30315;46.072;14.474;2022-12-08T03:45:04;7.60;82.60
44607;DHT22;30315;46.072;14.474;2022-12-08T03:47:31;7.70;82.60
44607;DHT22;30315;46.072;14.474;2022-12-08T03:49:57;7.70;82.70
44607;DHT22;30315;46.072;14.474;2022-12-08T03:52:24;7.70;82.70
44607;DHT22;30315;46.072;14.474;2022-12-08T03:54:51;7.80;82.90
44607;DHT22;30315;46.072;14.474;2022-12-08T03:57:18;7.60;82.50
44607;DHT22;30315;46.072;14.474;2022-12-08T03:59:45;7.60;82.10
44607;DHT22;30315;46.072;14.474;2022-12-08T04:02:12;7.50;81.80
44607;DHT22;30315;46.072;14.474;2022-12-08T04:04:40;7.50;81.50
44607;DHT22;30315;46.072;14.474;2022-12-08T04:07:07;7.60;81.70
44607;DHT22;30315;46.072;14.474;2022-12-08T04:09:34;7.60;81.70
44607;DHT22;30315;46.072;14.474;2022-12-08T04:12:01;7.60;81.60
44607;DHT22;30315;46.072;14.474;2022-12-08T04:14:29;7.60;81.80
44607;DHT22;30315;46.072;14.474;2022-12-08T04:16:57;7.80;82.00
44607;DHT22;30315;46.072;14.474;2022-12-08T04:19:24;7.60;81.80
44607;DHT22;30315;46.072;14.474;2022-12-08T04:21:51;7.50;81.70
44607;DHT22;30315;46.072;14.474;2022-12-08T04:24:18;7.60;81.80
44607;DHT22;30315;46.072;14.474;2022-12-08T04:26:45;7.60;81.90
44607;DHT22;30315;46.072;14.474;2022-12-08T04:29:12;7.60;82.00
44607;DHT22;30315;46.072;14.474;2022-12-08T04:31:40;7.60;82.20
44607;DHT22;30315;46.072;14.474;2022-12-08T04:34:07;7.50;82.20
44607;DHT22;30315;46.072;14.474;2022-12-08T04:36:34;7.60;82.80
44607;DHT22;30315;46.072;14.474;2022-12-08T04:39:02;7.80;82.50
44607;DHT22;30315;46.072;14.474;2022-12-08T04:41:29;7.90;82.70
44607;DHT22;30315;46.072;14.474;2022-12-08T04:43:56;7.60;82.60
44607;DHT22;30315;46.072;14.474;2022-12-08T04:46:23;7.60;82.30
44607;DHT22;30315;46.072;14.474;2022-12-08T04:48:50;7.60;82.00
44607;DHT22;30315;46.072;14.474;2022-12-08T04:51:18;7.60;82.10
44607;DHT22;30315;46.072;14.474;2022-12-08T04:53:46;7.50;82.50
44607;DHT22;30315;46.072;14.474;2022-12-08T04:56:18;7.60;82.40
44607;DHT22;30315;46.072;14.474;2022-12-08T04:58:46;7.50;82.20
44607;DHT22;30315;46.072;14.474;2022-12-08T05:01:13;7.60;82.30
44607;DHT22;30315;46.072;14.474;2022-12-08T05:03:41;7.60;82.70
44607;DHT22;30315;46.072;14.474;2022-12-08T05:06:11;7.50;82.70
44607;DHT22;30315;46.072;14.474;2022-12-08T05:08:40;7.40;82.30
44607;DHT22;30315;46.072;14.474;2022-12-08T05:11:08;7.50;82.70
44607;DHT22;30315;46.072;14.474;2022-12-08T05:13:36;7.50;82.90
44607;DHT22;30315;46.072;14.474;2022-12-08T05:16:12;7.60;83.90
44607;DHT22;30315;46.072;14.474;2022-12-08T05:18:41;7.60;83.20
44607;DHT22;30315;46.072;14.474;2022-12-08T05:21:09;7.60;82.70
44607;DHT22;30315;46.072;14.474;2022-12-08T05:23:36;7.70;82.90
44607;DHT22;30315;46.072;14.474;2022-12-08T05:26:05;7.50;82.30
44607;DHT22;30315;46.072;14.474;2022-12-08T05:28:32;7.50;82.50
44607;DHT22;30315;46.072;14.474;2022-12-08T05:31:10;7.60;82.80
44607;DHT22;30315;46.072;14.474;2022-12-08T05:33:37;7.50;82.70
44607;DHT22;30315;46.072;14.474;2022-12-08T05:36:05;7.40;82.80
44607;DHT22;30315;46.072;14.474;2022-12-08T05:38:32;7.50;82.90
44607;DHT22;30315;46.072;14.474;2022-12-08T05:40:59;7.90;82.90
44607;DHT22;30315;46.072;14.474;2022-12-08T05:43:26;7.80;82.90
44607;DHT22;30315;46.072;14.474;2022-12-08T05:45:53;7.60;83.20
44607;DHT22;30315;46.072;14.474;2022-12-08T05:48:20;7.50;83.20
44607;DHT22;30315;46.072;14.474;2022-12-08T05:50:48;7.80;83.30
44607;DHT22;30315;46.072;14.474;2022-12-08T05:53:16;7.60;83.10
44607;DHT22;30315;46.072;14.474;2022-12-08T05:55:44;7.60;83.10
44607;DHT22;30315;46.072;14.474;2022-12-08T05:58:16;7.60;82.80
44607;DHT22;30315;46.072;14.474;2022-12-08T06:00:44;7.70;82.70
44607;DHT22;30315;46.072;14.474;2022-12-08T06:03:12;7.60;82.60
44607;DHT22;30315;46.072;14.474;2022-12-08T06:05:42;7.60;82.60
44607;DHT22;30315;46.072;14.474;2022-12-08T06:08:09;7.60;82.70
44607;DHT22;30315;46.072;14.474;2022-12-08T06:10:38;7.60;82.90
44607;DHT22;30315;46.072;14.474;2022-12-08T06:13:05;7.50;83.10
44607;DHT22;30315;46.072;14.474;2022-12-08T06:15:36;7.50;83.30
44607;DHT22;30315;46.072;14.474;2022-12-08T06:18:04;7.70;83.60
44607;DHT22;30315;46.072;14.474;2022-12-08T06:20:32;7.50;83.60
44607;DHT22;30315;46.072;14.474;2022-12-08T06:22:59;7.60;83.80
44607;DHT22;30315;46.072;14.474;2022-12-08T06:25:26;7.60;84.80
44607;DHT22;30315;46.072;14.474;2022-12-08T06:27:53;7.50;84.20
44607;DHT22;30315;46.072;14.474;2022-12-08T06:30:20;7.50;84.30
44607;DHT22;30315;46.072;14.474;2022-12-08T06:32:47;7.50;84.30
44607;DHT22;30315;46.072;14.474;2022-12-08T06:35:15;7.50;84.40
44607;DHT22;30315;46.072;14.474;2022-12-08T06:37:42;7.50;84.40
44607;DHT22;30315;46.072;14.474;2022-12-08T06:40:12;7.50;84.50
44607;DHT22;30315;46.072;14.474;2022-12-08T06:42:43;7.40;85.00
44607;DHT22;30315;46.072;14.474;2022-12-08T06:45:11;7.60;86.10
44607;DHT22;30315;46.072;14.474;2022-12-08T06:47:39;7.60;85.40
44607;DHT22;30315;46.072;14.474;2022-12-08T06:50:07;7.60;85.20
44607;DHT22;30315;46.072;14.474;2022-12-08T06:52:34;7.60;85.20
44607;DHT22;30315;46.072;14.474;2022-12-08T06:55:14;7.60;85.20
44607;DHT22;30315;46.072;14.474;2022-12-08T06:58:01;7.60;84.60
44607;DHT22;30315;46.072;14.474;2022-12-08T07:00:27;7.50;84.00
44607;DHT22;30315;46.072;14.474;2022-12-08T07:02:55;7.50;84.40
44607;DHT22;30315;46.072;14.474;2022-12-08T07:05:22;7.50;84.60
44607;DHT22;30315;46.072;14.474;2022-12-08T07:07:49;7.50;84.40
44607;DHT22;30315;46.072;14.474;2022-12-08T07:10:16;7.80;84.80
44607;DHT22;30315;46.072;14.474;2022-12-08T07:12:43;7.50;84.10
44607;DHT22;30315;46.072;14.474;2022-12-08T07:15:10;7.50;83.10
44607;DHT22;30315;46.072;14.474;2022-12-08T07:17:37;7.40;83.30
44607;DHT22;30315;46.072;14.474;2022-12-08T07:20:05;7.70;83.60
44607;DHT22;30315;46.072;14.474;2022-12-08T07:22:32;7.40;83.70
44607;DHT22;30315;46.072;14.474;2022-12-08T07:24:59;7.40;84.20
44607;DHT22;30315;46.072;14.474;2022-12-08T07:27:27;7.30;84.20
44607;DHT22;30315;46.072;14.474;2022-12-08T07:29:54;7.40;84.70
44607;DHT22;30315;46.072;14.474;2022-12-08T07:32:21;7.40;85.00
44607;DHT22;30315;46.072;14.474;2022-12-08T07:34:47;7.40;84.90
44607;DHT22;30315;46.072;14.474;2022-12-08T07:37:15;7.40;84.60
44607;DHT22;30315;46.072;14.474;2022-12-08T07:39:42;7.40;84.80
44607;DHT22;30315;46.072;14.474;2022-12-08T07:42:09;7.40;84.70
44607;DHT22;30315;46.072;14.474;2022-12-08T07:44:36;7.50;84.30
44607;DHT22;30315;46.072;14.474;2022-12-08T07:47:03;7.50;84.40
44607;DHT22;30315;46.072;14.474;2022-12-08T07:49:30;7.50;84.40
44607;DHT22;30315;46.072;14.474;2022-12-08T07:51:57;7.50;84.50
44607;DHT22;30315;46.072;14.474;2022-12-08T07:54:24;7.50;84.80
44607;DHT22;30315;46.072;14.474;2022-12-08T07:56:51;7.50;85.10
44607;DHT22;30315;46.072;14.474;2022-12-08T07:59:18;7.50;84.90
44607;DHT22;30315;46.072;14.474;2022-12-08T08:01:45;7.60;84.80
44607;DHT22;30315;46.072;14.474;2022-12-08T08:04:34;7.50;84.10
44607;DHT22;30315;46.072;14.474;2022-12-08T08:07:01;7.50;84.40
44607;DHT22;30315;46.072;14.474;2022-12-08T08:09:28;7.50;84.20
44607;DHT22;30315;46.072;14.474;2022-12-08T08:11:55;7.60;84.30
44607;DHT22;30315;46.072;14.474;2022-12-08T08:14:42;7.80;84.30
44607;DHT22;30315;46.072;14.474;2022-12-08T08:17:09;7.50;84.10
44607;DHT22;30315;46.072;14.474;2022-12-08T08:19:36;7.80;84.00
44607;DHT22;30315;46.072;14.474;2022-12-08T08:22:04;8.00;84.00
44607;DHT22;30315;46.072;14.474;2022-12-08T08:24:31;7.60;83.50
44607;DHT22;30315;46.072;14.474;2022-12-08T08:27:01;7.40;83.30
44607;DHT22;30315;46.072;14.474;2022-12-08T08:29:28;7.70;83.80
44607;DHT22;30315;46.072;14.474;2022-12-08T08:31:55;7.90;83.90
44607;DHT22;30315;46.072;14.474;2022-12-08T08:34:22;7.50;83.80
44607;DHT22;30315;46.072;14.474;2022-12-08T08:36:49;7.60;83.90
44607;DHT22;30315;46.072;14.474;2022-12-08T08:39:15;7.60;84.10
44607;DHT22;30315;46.072;14.474;2022-12-08T08:41:43;7.50;83.80
44607;DHT22;30315;46.072;14.474;2022-12-08T08:44:12;7.60;83.80
44607;DHT22;30315;46.072;14.474;2022-12-08T08:46:40;7.50;83.70
44607;DHT22;30315;46.072;14.474;2022-12-08T08:49:07;7.50;83.50
44607;DHT22;30315;46.072;14.474;2022-12-08T08:51:34;7.70;83.90
44607;DHT22;30315;46.072;14.474;2022-12-08T08:54:01;7.60;84.30
44607;DHT22;30315;46.072;14.474;2022-12-08T08:56:27;7.50;84.40
44607;DHT22;30315;46.072;14.474;2022-12-08T08:58:54;7.80;84.60
44607;DHT22;30315;46.072;14.474;2022-12-08T09:01:24;7.80;84.60
44607;DHT22;30315;46.072;14.474;2022-12-08T09:03:51;7.50;84.60
44607;DHT22;30315;46.072;14.474;2022-12-08T09:06:18;7.60;84.70
44607;DHT22;30315;46.072;14.474;2022-12-08T09:08:46;7.70;84.80
44607;DHT22;30315;46.072;14.474;2022-12-08T09:11:14;7.60;84.30
44607;DHT22;30315;46.072;14.474;2022-12-08T09:13:41;7.60;84.30
44607;DHT22;30315;46.072;14.474;2022-12-08T09:16:09;7.60;84.60
44607;DHT22;30315;46.072;14.474;2022-12-08T09:18:37;7.80;84.60
44607;DHT22;30315;46.072;14.474;2022-12-08T09:21:07;7.70;84.50
44607;DHT22;30315;46.072;14.474;2022-12-08T09:23:34;7.60;84.10
44607;DHT22;30315;46.072;14.474;2022-12-08T09:26:02;7.60;84.10
44607;DHT22;30315;46.072;14.474;2022-12-08T09:28:31;7.70;84.10
44607;DHT22;30315;46.072;14.474;2022-12-08T09:30:58;7.80;84.10
44607;DHT22;30315;46.072;14.474;2022-12-08T09:33:25;7.90;84.50
44607;DHT22;30315;46.072;14.474;2022-12-08T09:35:52;7.90;84.80
44607;DHT22;30315;46.072;14.474;2022-12-08T09:38:19;7.90;84.80
44607;DHT22;30315;46.072;14.474;2022-12-08T09:40:51;8.00;84.50
44607;DHT22;30315;46.072;14.474;2022-12-08T09:46:07;8.00;83.60
44607;DHT22;30315;46.072;14.474;2022-12-08T09:48:39;8.00;83.10
44607;DHT22;30315;46.072;14.474;2022-12-08T09:51:09;8.00;83.60
44607;DHT22;30315;46.072;14.474;2022-12-08T09:53:46;8.10;83.40
44607;DHT22;30315;46.072;14.474;2022-12-08T09:56:26;7.90;83.40
44607;DHT22;30315;46.072;14.474;2022-12-08T09:59:32;8.00;83.50
44607;DHT22;30315;46.072;14.474;2022-12-08T10:02:01;8.00;83.80
44607;DHT22;30315;46.072;14.474;2022-12-08T10:04:37;8.00;84.00
44607;DHT22;30315;46.072;14.474;2022-12-08T10:07:41;8.10;84.50
44607;DHT22;30315;46.072;14.474;2022-12-08T10:18:22;8.00;83.40
44607;DHT22;30315;46.072;14.474;2022-12-08T10:20:51;8.00;83.50
44607;DHT22;30315;46.072;14.474;2022-12-08T10:26:05;8.00;83.70
44607;DHT22;30315;46.072;14.474;2022-12-08T10:28:33;8.10;83.50
44607;DHT22;30315;46.072;14.474;2022-12-08T10:31:04;8.10;83.00
44607;DHT22;30315;46.072;14.474;2022-12-08T10:33:32;8.10;82.90
44607;DHT22;30315;46.072;14.474;2022-12-08T10:36:00;8.10;83.40
44607;DHT22;30315;46.072;14.474;2022-12-08T10:38:33;8.10;83.70
44607;DHT22;30315;46.072;14.474;2022-12-08T10:43:32;8.20;83.60
44607;DHT22;30315;46.072;14.474;2022-12-08T10:46:28;8.10;83.70
44607;DHT22;30315;46.072;14.474;2022-12-08T10:49:10;8.20;83.60
44607;DHT22;30315;46.072;14.474;2022-12-08T10:51:39;8.10;83.20
44607;DHT22;30315;46.072;14.474;2022-12-08T10:54:31;8.20;83.20
44607;DHT22;30315;46.072;14.474;2022-12-08T10:56:58;8.20;82.70
44607;DHT22;30315;46.072;14.474;2022-12-08T10:59:26;8.20;82.20
44607;DHT22;30315;46.072;14.474;2022-12-08T11:01:54;8.20;82.10
44607;DHT22;30315;46.072;14.474;2022-12-08T11:06:56;8.20;82.30
44607;DHT22;30315;46.072;14.474;2022-12-08T11:09:33;8.20;82.70
44607;DHT22;30315;46.072;14.474;2022-12-08T11:12:15;8.30;83.10
44607;DHT22;30315;46.072;14.474;2022-12-08T11:14:47;8.40;82.90
44607;DHT22;30315;46.072;14.474;2022-12-08T11:23:01;8.50;83.20
44607;DHT22;30315;46.072;14.474;2022-12-08T11:25:27;8.50;82.30
44607;DHT22;30315;46.072;14.474;2022-12-08T11:27:59;8.40;82.40
44607;DHT22;30315;46.072;14.474;2022-12-08T11:30:42;8.50;82.30
44607;DHT22;30315;46.072;14.474;2022-12-08T11:33:13;8.50;82.20
44607;DHT22;30315;46.072;14.474;2022-12-08T11:35:44;8.50;82.10
44607;DHT22;30315;46.072;14.474;2022-12-08T11:38:21;8.50;82.70
44607;DHT22;30315;46.072;14.474;2022-12-08T11:41:07;8.50;82.80
44607;DHT22;30315;46.072;14.474;2022-12-08T11:46:35;8.60;83.00
44607;DHT22;30315;46.072;14.474;2022-12-08T11:49:09;8.60;83.30
44607;DHT22;30315;46.072;14.474;2022-12-08T11:52:01;8.60;82.90
44607;DHT22;30315;46.072;14.474;2022-12-08T11:54:34;8.60;82.60
44607;DHT22;30315;46.072;14.474;2022-12-08T11:57:05;8.70;83.00
44607;DHT22;30315;46.072;14.474;2022-12-08T11:59:37;8.60;83.10
44607;DHT22;30315;46.072;14.474;2022-12-08T12:02:26;8.60;82.60
44607;DHT22;30315;46.072;14.474;2022-12-08T12:05:08;8.60;82.30
44607;DHT22;30315;46.072;14.474;2022-12-08T12:13:20;8.50;82.80
44607;DHT22;30315;46.072;14.474;2022-12-08T12:21:18;8.60;82.60
44607;DHT22;30315;46.072;14.474;2022-12-08T12:23:50;8.60;82.40
44607;DHT22;30315;46.072;14.474;2022-12-08T12:26:27;8.60;81.90
44607;DHT22;30315;46.072;14.474;2022-12-08T12:31:29;8.50;81.80
44607;DHT22;30315;46.072;14.474;2022-12-08T12:34:18;8.50;81.50
44607;DHT22;30315;46.072;14.474;2022-12-08T12:39:20;8.50;81.60
44607;DHT22;30315;46.072;14.474;2022-12-08T12:41:51;8.60;81.80
44607;DHT22;30315;46.072;14.474;2022-12-08T12:44:24;8.60;81.70
44607;DHT22;30315;46.072;14.474;2022-12-08T12:46:52;8.60;81.00
44607;DHT22;30315;46.072;14.474;2022-12-08T12:57:20;8.50;80.40
44607;DHT22;30315;46.072;14.474;2022-12-08T13:02:30;8.60;80.20
44607;DHT22;30315;46.072;14.474;2022-12-08T13:10:38;8.60;80.10
44607;DHT22;30315;46.072;14.474;2022-12-08T13:13:18;8.60;80.40
44607;DHT22;30315;46.072;14.474;2022-12-08T13:15:57;8.60;80.60
44607;DHT22;30315;46.072;14.474;2022-12-08T13:18:50;8.50;80.70
44607;DHT22;30315;46.072;14.474;2022-12-08T13:21:20;8.70;80.90
44607;DHT22;30315;46.072;14.474;2022-12-08T13:26:44;8.60;80.60
44607;DHT22;30315;46.072;14.474;2022-12-08T13:29:24;8.60;80.40
44607;DHT22;30315;46.072;14.474;2022-12-08T13:31:59;8.60;80.40
44607;DHT22;30315;46.072;14.474;2022-12-08T13:44:48;8.60;80.10
44607;DHT22;30315;46.072;14.474;2022-12-08T13:51:05;8.60;80.40
44607;DHT22;30315;46.072;14.474;2022-12-08T13:54:01;8.60;80.00
44607;DHT22;30315;46.072;14.474;2022-12-08T13:56:51;8.60;79.70
44607;DHT22;30315;46.072;14.474;2022-12-08T13:59:34;8.50;79.40
44607;DHT22;30315;46.072;14.474;2022-12-08T14:04:50;8.60;79.50
44607;DHT22;30315;46.072;14.474;2022-12-08T14:07:42;8.60;79.50
44607;DHT22;30315;46.072;14.474;2022-12-08T14:10:25;8.80;79.60
44607;DHT22;30315;46.072;14.474;2022-12-08T14:13:11;8.60;79.20
44607;DHT22;30315;46.072;14.474;2022-12-08T14:15:39;8.50;79.00
44607;DHT22;30315;46.072;14.474;2022-12-08T14:18:27;8.60;79.40
44607;DHT22;30315;46.072;14.474;2022-12-08T14:21:05;8.60;79.80
44607;DHT22;30315;46.072;14.474;2022-12-08T14:23:48;8.60;80.10
44607;DHT22;30315;46.072;14.474;2022-12-08T14:26:15;8.60;80.30
44607;DHT22;30315;46.072;14.474;2022-12-08T14:28:43;8.60;80.40
44607;DHT22;30315;46.072;14.474;2022-12-08T14:31:11;8.60;80.90
44607;DHT22;30315;46.072;14.474;2022-12-08T14:33:40;8.60;80.00
44607;DHT22;30315;46.072;14.474;2022-12-08T14:36:08;8.60;80.10
44607;DHT22;30315;46.072;14.474;2022-12-08T14:38:36;8.60;80.20
44607;DHT22;30315;46.072;14.474;2022-12-08T14:41:08;8.60;80.10
44607;DHT22;30315;46.072;14.474;2022-12-08T14:43:37;8.60;80.10
44607;DHT22;30315;46.072;14.474;2022-12-08T14:46:21;8.60;80.20
44607;DHT22;30315;46.072;14.474;2022-12-08T14:48:50;8.60;80.40
44607;DHT22;30315;46.072;14.474;2022-12-08T14:51:27;8.60;80.60
44607;DHT22;30315;46.072;14.474;2022-12-08T14:54:07;8.60;80.60
44607;DHT22;30315;46.072;14.474;2022-12-08T14:59:29;8.60;81.00
44607;DHT22;30315;46.072;14.474;2022-12-08T15:04:45;8.50;81.30
44607;DHT22;30315;46.072;14.474;2022-12-08T15:07:18;8.50;81.40
44607;DHT22;30315;46.072;14.474;2022-12-08T15:09:49;8.50;81.60
44607;DHT22;30315;46.072;14.474;2022-12-08T15:12:33;8.50;81.70
44607;DHT22;30315;46.072;14.474;2022-12-08T15:15:14;8.50;81.90
44607;DHT22;30315;46.072;14.474;2022-12-08T15:17:49;8.40;82.10
44607;DHT22;30315;46.072;14.474;2022-12-08T15:22:57;8.40;82.10
44607;DHT22;30315;46.072;14.474;2022-12-08T15:25:25;8.50;82.40
44607;DHT22;30315;46.072;14.474;2022-12-08T15:27:52;8.40;82.70
44607;DHT22;30315;46.072;14.474;2022-12-08T15:30:19;8.40;82.80
44607;DHT22;30315;46.072;14.474;2022-12-08T15:32:46;8.50;82.90
44607;DHT22;30315;46.072;14.474;2022-12-08T15:35:18;8.40;82.50
44607;DHT22;30315;46.072;14.474;2022-12-08T15:37:45;8.40;82.80
44607;DHT22;30315;46.072;14.474;2022-12-08T15:40:18;8.40;83.00
44607;DHT22;30315;46.072;14.474;2022-12-08T15:42:48;8.40;83.00
44607;DHT22;30315;46.072;14.474;2022-12-08T15:45:16;8.40;83.20
44607;DHT22;30315;46.072;14.474;2022-12-08T15:47:46;8.30;83.20
44607;DHT22;30315;46.072;14.474;2022-12-08T15:50:16;8.40;83.20
44607;DHT22;30315;46.072;14.474;2022-12-08T15:52:44;8.10;83.20
44607;DHT22;30315;46.072;14.474;2022-12-08T15:55:17;8.30;83.50
44607;DHT22;30315;46.072;14.474;2022-12-08T15:57:48;8.30;83.50
44607;DHT22;30315;46.072;14.474;2022-12-08T16:00:36;8.30;83.60
44607;DHT22;30315;46.072;14.474;2022-12-08T16:03:28;8.30;83.90
44607;DHT22;30315;46.072;14.474;2022-12-08T16:06:18;8.30;83.90
44607;DHT22;30315;46.072;14.474;2022-12-08T16:09:14;8.20;83.90
44607;DHT22;30315;46.072;14.474;2022-12-08T16:11:42;8.20;84.10
44607;DHT22;30315;46.072;14.474;2022-12-08T16:14:34;8.30;84.20
44607;DHT22;30315;46.072;14.474;2022-12-08T16:17:22;8.20;84.20
44607;DHT22;30315;46.072;14.474;2022-12-08T16:19:49;8.30;84.40
44607;DHT22;30315;46.072;14.474;2022-12-08T16:22:20;8.20;84.30
44607;DHT22;30315;46.072;14.474;2022-12-08T16:25:08;8.20;84.40
44607;DHT22;30315;46.072;14.474;2022-12-08T16:27:53;8.50;84.70
44607;DHT22;30315;46.072;14.474;2022-12-08T16:30:41;8.50;84.80
44607;DHT22;30315;46.072;14.474;2022-12-08T16:33:10;8.20;84.60
44607;DHT22;30315;46.072;14.474;2022-12-08T16:35:37;8.20;84.90
44607;DHT22;30315;46.072;14.474;2022-12-08T16:38:04;8.20;84.70
44607;DHT22;30315;46.072;14.474;2022-12-08T16:40:31;8.20;84.70
44607;DHT22;30315;46.072;14.474;2022-12-08T16:42:58;8.10;84.80
44607;DHT22;30315;46.072;14.474;2022-12-08T16:45:29;8.10;84.90
44607;DHT22;30315;46.072;14.474;2022-12-08T16:47:58;8.10;85.10
44607;DHT22;30315;46.072;14.474;2022-12-08T16:50:32;8.20;85.10
44607;DHT22;30315;46.072;14.474;2022-12-08T16:53:07;8.10;84.90
44607;DHT22;30315;46.072;14.474;2022-12-08T16:55:39;8.10;85.10
44607;DHT22;30315;46.072;14.474;2022-12-08T16:58:06;7.90;84.90
44607;DHT22;30315;46.072;14.474;2022-12-08T17:00:33;8.20;85.20
44607;DHT22;30315;46.072;14.474;2022-12-08T17:03:04;8.20;85.20
44607;DHT22;30315;46.072;14.474;2022-12-08T17:05:34;8.20;85.40
44607;DHT22;30315;46.072;14.474;2022-12-08T17:08:01;8.20;85.50
44607;DHT22;30315;46.072;14.474;2022-12-08T17:10:29;8.20;85.60
44607;DHT22;30315;46.072;14.474;2022-12-08T17:13:00;8.20;85.60
44607;DHT22;30315;46.072;14.474;2022-12-08T17:15:28;8.20;85.60
44607;DHT22;30315;46.072;14.474;2022-12-08T17:17:55;8.10;85.40
44607;DHT22;30315;46.072;14.474;2022-12-08T17:20:25;8.20;85.50
44607;DHT22;30315;46.072;14.474;2022-12-08T17:22:54;8.20;85.60
44607;DHT22;30315;46.072;14.474;2022-12-08T17:25:22;8.10;85.60
44607;DHT22;30315;46.072;14.474;2022-12-08T17:27:49;8.00;85.60
44607;DHT22;30315;46.072;14.474;2022-12-08T17:30:16;8.10;85.80
44607;DHT22;30315;46.072;14.474;2022-12-08T17:32:45;8.10;85.80
44607;DHT22;30315;46.072;14.474;2022-12-08T17:35:12;8.10;85.80
44607;DHT22;30315;46.072;14.474;2022-12-08T17:37:39;8.20;85.90
44607;DHT22;30315;46.072;14.474;2022-12-08T17:40:09;8.10;86.10
44607;DHT22;30315;46.072;14.474;2022-12-08T17:42:36;8.00;86.00
44607;DHT22;30315;46.072;14.474;2022-12-08T17:45:05;8.00;86.00
44607;DHT22;30315;46.072;14.474;2022-12-08T17:47:33;8.00;86.00
44607;DHT22;30315;46.072;14.474;2022-12-08T17:50:04;8.00;86.80
44607;DHT22;30315;46.072;14.474;2022-12-08T17:52:34;7.90;86.10